CheckWX is a tool to help pilots better visualize weather data.  It is not intended as a substitute for an official pre-flight weather briefing.

02:52:03 UTC

KFFA METAR
First Flight Airport
Kill Devil Hills, North Carolina, USA
Current

12 mins ago

KFFA 230240Z AUTO 00000KT 10SM CLR 21/17 A3014 RMK AO2 T02110173
Observed
Sep-23 @ 02:40 UTC
Visibility
10 SM
Flight Rules
VFR
Cloud Levels
  • Clear skies
Temperature
21°C / 70°F
Dewpoint
17°C / 63°F
Humidity
78%
Altimeter
30.14" Hg
Pressure
1020.62 hPa
Previous

32 mins ago

KFFA 230220Z AUTO 19003KT 10SM CLR 21/17 A3014 RMK AO2 T02110171
Observed
Sep-23 @ 02:20 UTC
Wind
  • 190° at 3 KTS
Visibility
10 SM
Flight Rules
VFR
Cloud Levels
  • Clear skies
Temperature
21°C / 70°F
Dewpoint
17°C / 63°F
Humidity
78%
Altimeter
30.14" Hg
Pressure
1020.62 hPa
Previous

52 mins ago

KFFA 230200Z AUTO 00000KT 10SM CLR 21/17 A3014 RMK AO2 T02120170
Observed
Sep-23 @ 02:00 UTC
Visibility
10 SM
Flight Rules
VFR
Cloud Levels
  • Clear skies
Temperature
21°C / 70°F
Dewpoint
17°C / 63°F
Humidity
78%
Altimeter
30.14" Hg
Pressure
1020.62 hPa